Viby, Denmark
Current Conditions -  °F | °C
As of 2:50 AM on Friday 19 Dec 2014 (Local Time) from EKRK Reporting Station
Broken Clouds Broken Clouds  
Wind Chill: 50°   Ceiling: 5500
Heat Index: 50°   Visibility: 6mi
Dew Point: 46°   Wind: 22mph
Humidity: 87%   Direction: 260°W
Pressure: 29.41"   Gusts: 36mph
Location:  55.55°N, 12.02°E
Report Text: EKRK 190150Z AUTO 26019G31KT 9999NDV FEW015/// BKN055///BKN110/// 10/08 Q0996
Loading
Personal Weather Stations






























Interactive Weather Map New forecast layout! Learn more

10-Day Weather Forecast

Advertisements
Track Severe Weather on mobile